createdAt,value
2023-04-27T00:02:25.853Z,35.10
2023-04-27T00:04:54.371Z,34.90
2023-04-27T00:07:22.754Z,34.80
2023-04-27T00:09:51.975Z,34.60
2023-04-27T00:12:21.450Z,34.40
2023-04-27T00:14:49.496Z,34.20
2023-04-27T00:17:17.546Z,34.20
2023-04-27T00:19:47.525Z,34.00
2023-04-27T00:22:16.049Z,33.90
2023-04-27T00:24:44.154Z,34.30
2023-04-27T00:27:13.613Z,34.70
2023-04-27T00:29:43.167Z,35.40
2023-04-27T00:32:11.380Z,34.50
2023-04-27T00:34:39.544Z,34.30
2023-04-27T00:37:07.624Z,34.20
2023-04-27T00:39:35.902Z,34.20
2023-04-27T00:42:04.028Z,34.00
2023-04-27T00:44:32.130Z,33.90
2023-04-27T00:47:01.607Z,33.90
2023-04-27T00:49:29.895Z,33.70
2023-04-27T00:51:57.954Z,33.90
2023-04-27T00:54:26.032Z,34.30
2023-04-27T00:56:54.201Z,34.70
2023-04-27T00:59:22.355Z,34.50
2023-04-27T01:01:50.596Z,34.30
2023-04-27T01:04:20.528Z,34.20
2023-04-27T01:06:51.819Z,34.10
2023-04-27T01:09:20.290Z,34.00
2023-04-27T01:11:48.379Z,33.80
2023-04-27T01:14:17.311Z,33.70
2023-04-27T01:16:46.504Z,33.70
2023-04-27T01:19:15.135Z,33.80
2023-04-27T01:21:44.664Z,34.80
2023-04-27T01:24:14.151Z,34.50
2023-04-27T01:26:42.207Z,34.40
2023-04-27T01:29:10.581Z,34.30
2023-04-27T01:31:38.883Z,34.20
2023-04-27T01:34:07.200Z,34.10
2023-04-27T01:36:35.597Z,33.90
2023-04-27T01:39:04.413Z,33.80
2023-04-27T01:41:33.808Z,33.70
2023-04-27T01:44:01.843Z,33.60
2023-04-27T01:46:30.054Z,33.50
2023-04-27T01:48:58.118Z,33.80
2023-04-27T01:51:26.188Z,34.30
2023-04-27T01:53:54.212Z,34.60
2023-04-27T01:56:22.433Z,34.80
2023-04-27T01:58:53.625Z,35.00
2023-04-27T02:01:21.659Z,35.20
2023-04-27T02:03:49.890Z,35.10
2023-04-27T02:06:18.074Z,34.80
2023-04-27T02:08:46.104Z,34.60
2023-04-27T02:11:14.217Z,34.60
2023-04-27T02:13:42.320Z,34.40
2023-04-27T02:16:11.762Z,34.20
2023-04-27T02:18:40.433Z,34.00
2023-04-27T02:21:11.758Z,33.90
2023-04-27T02:23:39.836Z,33.90
2023-04-27T02:26:07.885Z,34.40
2023-04-27T02:28:35.981Z,34.70
2023-04-27T02:31:04.537Z,34.60
2023-04-27T02:33:34.081Z,34.40
2023-04-27T02:36:02.109Z,34.40
2023-04-27T02:38:30.820Z,34.20
2023-04-27T02:40:59.391Z,34.10
2023-04-27T02:43:27.918Z,34.00
2023-04-27T02:45:55.975Z,33.90
2023-04-27T02:48:23.943Z,33.70
2023-04-27T02:50:53.329Z,33.60
2023-04-27T02:53:21.348Z,33.90
2023-04-27T02:55:49.456Z,34.30
2023-04-27T02:58:17.712Z,34.60
2023-04-27T03:00:46.135Z,34.40
2023-04-27T03:03:14.416Z,34.40
2023-04-27T03:05:42.575Z,34.10
2023-04-27T03:08:12.024Z,34.00
2023-04-27T03:10:40.148Z,34.00
2023-04-27T03:13:08.222Z,33.80
2023-04-27T03:15:36.304Z,33.70
2023-04-27T03:18:04.465Z,33.60
2023-04-27T03:20:32.759Z,33.60
2023-04-27T03:23:01.424Z,34.00
2023-04-27T03:25:30.886Z,34.40
2023-04-27T03:27:58.994Z,34.40
2023-04-27T03:30:27.028Z,34.20
2023-04-27T03:32:55.093Z,34.10
2023-04-27T03:35:23.143Z,34.00
2023-04-27T03:37:51.222Z,33.80
2023-04-27T03:40:19.282Z,33.80
2023-04-27T03:42:48.664Z,33.60
2023-04-27T03:45:18.567Z,33.60
2023-04-27T03:47:46.873Z,33.50
2023-04-27T03:50:14.914Z,33.90
2023-04-27T03:52:42.968Z,34.20
2023-04-27T03:55:11.215Z,34.50
2023-04-27T03:57:39.262Z,34.70
2023-04-27T04:00:11.712Z,35.00
2023-04-27T04:02:40.232Z,35.10
2023-04-27T04:05:08.965Z,35.00
2023-04-27T04:07:37.138Z,34.80
2023-04-27T04:10:05.778Z,34.60
2023-04-27T04:12:33.893Z,35.00
2023-04-27T04:15:02.068Z,34.20
2023-04-27T04:17:33.944Z,34.10
2023-04-27T04:20:02.181Z,34.00
2023-04-27T04:22:30.213Z,33.90
2023-04-27T04:24:58.318Z,34.00
2023-04-27T04:27:26.451Z,34.40
2023-04-27T04:29:55.551Z,34.60
2023-04-27T04:32:24.501Z,34.70
2023-04-27T04:34:54.274Z,34.40
2023-04-27T04:37:23.008Z,34.30
2023-04-27T04:39:51.107Z,34.10
2023-04-27T04:42:19.212Z,33.90
2023-04-27T04:44:47.262Z,33.80
2023-04-27T04:47:15.300Z,33.80
2023-04-27T04:49:43.357Z,33.60
2023-04-27T04:52:12.772Z,33.60
2023-04-27T04:54:40.968Z,33.90
2023-04-27T04:57:08.996Z,34.20
2023-04-27T04:59:36.970Z,34.50
2023-04-27T05:02:05.186Z,34.40
2023-04-27T05:04:33.362Z,34.20
2023-04-27T05:07:01.461Z,34.10
2023-04-27T05:09:30.913Z,33.90
2023-04-27T05:11:59.672Z,34.40
2023-04-27T05:14:28.982Z,33.70
2023-04-27T05:16:57.117Z,33.60
2023-04-27T05:19:26.356Z,33.50
2023-04-27T05:21:54.472Z,33.40
2023-04-27T05:24:22.525Z,33.90
2023-04-27T05:26:52.077Z,34.30
2023-04-27T05:29:20.098Z,34.40
2023-04-27T05:31:48.208Z,34.10
2023-04-27T05:34:16.269Z,34.10
2023-04-27T05:36:44.299Z,33.90
2023-04-27T05:39:13.448Z,33.90
2023-04-27T05:41:41.653Z,33.70
2023-04-27T05:44:11.089Z,33.60
2023-04-27T05:46:39.115Z,33.50
2023-04-27T05:49:07.162Z,33.40
2023-04-27T05:51:35.274Z,33.50
2023-04-27T05:54:03.342Z,34.00
2023-04-27T05:56:31.377Z,34.40
2023-04-27T05:59:01.777Z,34.60
2023-04-27T06:01:32.076Z,34.80
2023-04-27T06:04:02.249Z,35.00
2023-04-27T06:06:34.219Z,34.90
2023-04-27T06:09:02.465Z,34.70
2023-04-27T06:11:31.742Z,34.50
2023-04-27T06:13:59.769Z,34.40
2023-04-27T06:16:28.005Z,34.20
2023-04-27T06:18:57.470Z,34.10
2023-04-27T06:21:25.529Z,33.90
2023-04-27T06:23:56.609Z,33.80
2023-04-27T06:26:24.787Z,33.60
2023-04-27T06:28:52.833Z,34.10
2023-04-27T06:31:20.967Z,34.40
2023-04-27T06:33:48.977Z,34.60
2023-04-27T06:36:18.410Z,34.30
2023-04-27T06:38:46.504Z,34.20
2023-04-27T06:41:14.553Z,34.60
2023-04-27T06:43:42.567Z,33.90
2023-04-27T06:46:10.832Z,33.80
2023-04-27T06:48:38.860Z,33.60
2023-04-27T06:51:07.059Z,33.60
2023-04-27T06:53:36.833Z,33.40
2023-04-27T06:56:05.233Z,33.60
2023-04-27T06:58:33.264Z,33.90
2023-04-27T07:01:01.598Z,34.40
2023-04-27T07:03:29.979Z,34.60
2023-04-27T07:05:59.242Z,34.00
2023-04-27T07:08:27.295Z,33.90
2023-04-27T07:10:57.219Z,34.40
2023-04-27T07:13:25.218Z,33.70
2023-04-27T07:15:57.642Z,33.60
2023-04-27T07:18:28.089Z,33.50
2023-04-27T07:20:57.965Z,33.40
2023-04-27T07:23:26.037Z,33.40
2023-04-27T07:25:54.159Z,33.60
2023-04-27T07:28:23.564Z,33.90
2023-04-27T07:30:51.636Z,34.30
2023-04-27T07:33:19.615Z,33.90
2023-04-27T07:35:47.665Z,33.80
2023-04-27T07:38:17.486Z,33.80
2023-04-27T07:40:46.429Z,33.60
2023-04-27T07:43:15.591Z,33.50
2023-04-27T07:45:45.836Z,33.40
2023-04-27T07:48:13.984Z,33.30
2023-04-27T07:50:42.038Z,33.20
2023-04-27T07:53:10.067Z,33.40
2023-04-27T07:55:38.058Z,33.50
2023-04-27T07:58:06.378Z,33.90
2023-04-27T08:00:34.434Z,34.40
2023-04-27T08:03:04.132Z,34.70
2023-04-27T08:05:32.737Z,35.10
2023-04-27T08:08:01.837Z,34.80
2023-04-27T08:10:30.033Z,34.40
2023-04-27T08:12:58.053Z,34.20
2023-04-27T08:15:26.319Z,34.10
2023-04-27T08:17:54.397Z,33.90
2023-04-27T08:20:23.923Z,33.80
2023-04-27T08:22:52.269Z,33.70
2023-04-27T08:25:20.592Z,33.50
2023-04-27T08:27:48.623Z,33.50
2023-04-27T08:30:17.478Z,33.80
2023-04-27T08:32:45.772Z,34.20
2023-04-27T08:35:14.802Z,34.50
2023-04-27T08:37:44.602Z,33.90
2023-04-27T08:40:13.460Z,33.90
2023-04-27T08:42:41.888Z,33.70
2023-04-27T08:45:11.298Z,33.50
2023-04-27T08:47:43.357Z,33.40
2023-04-27T08:50:12.908Z,33.30
2023-04-27T08:52:41.010Z,33.20
2023-04-27T08:55:11.010Z,33.10
2023-04-27T08:57:39.106Z,33.40
2023-04-27T09:00:12.932Z,33.70
2023-04-27T09:02:47.277Z,34.00
2023-04-27T09:05:18.646Z,33.80
2023-04-27T09:08:00.102Z,33.70
2023-04-27T09:10:30.034Z,33.50
2023-04-27T09:12:59.112Z,33.40
2023-04-27T09:15:27.283Z,33.30
2023-04-27T09:17:56.637Z,33.20
2023-04-27T09:20:26.957Z,33.10
2023-04-27T09:22:56.100Z,33.00
2023-04-27T09:25:25.371Z,33.20
2023-04-27T09:27:54.786Z,33.40
2023-04-27T09:30:22.966Z,33.60
2023-04-27T09:32:56.086Z,33.80
2023-04-27T09:35:27.684Z,33.60
2023-04-27T09:37:56.147Z,33.40
2023-04-27T09:40:26.711Z,33.40
2023-04-27T09:42:57.044Z,33.30
2023-04-27T09:45:25.318Z,33.20
2023-04-27T09:47:53.683Z,33.20
2023-04-27T09:50:22.195Z,33.20
2023-04-27T09:52:50.315Z,33.10
2023-04-27T09:55:20.560Z,33.20
2023-04-27T09:57:53.412Z,33.40
2023-04-27T10:00:27.664Z,33.70
2023-04-27T10:03:04.435Z,34.10
2023-04-27T10:05:39.480Z,34.50
2023-04-27T10:08:07.560Z,34.70
2023-04-27T10:10:43.796Z,34.20
2023-04-27T10:13:23.900Z,34.10
2023-04-27T10:15:53.504Z,34.00
2023-04-27T10:18:28.701Z,33.90
2023-04-27T10:20:56.738Z,33.70
2023-04-27T10:23:25.752Z,33.60
2023-04-27T10:25:54.524Z,33.50
2023-04-27T10:28:22.597Z,33.40
2023-04-27T10:30:51.030Z,33.60
2023-04-27T10:33:21.415Z,33.70
2023-04-27T10:35:55.960Z,33.80
2023-04-27T10:38:29.056Z,33.90
2023-04-27T10:40:57.707Z,33.80
2023-04-27T10:43:28.100Z,33.70
2023-04-27T10:45:56.432Z,33.60
2023-04-27T10:48:26.524Z,33.40
2023-04-27T10:50:55.015Z,33.40
2023-04-27T10:53:23.029Z,34.00
2023-04-27T10:55:56.351Z,33.20
2023-04-27T10:58:29.830Z,33.30
2023-04-27T11:01:03.348Z,33.40
2023-04-27T11:03:32.982Z,33.60
2023-04-27T11:06:02.331Z,34.00
2023-04-27T11:08:32.736Z,33.70
2023-04-27T11:11:01.658Z,33.60
2023-04-27T11:13:30.982Z,33.50
2023-04-27T11:16:00.357Z,33.40
2023-04-27T11:18:29.221Z,33.30
2023-04-27T11:21:07.509Z,33.20
2023-04-27T11:23:38.109Z,33.10
2023-04-27T11:26:11.006Z,33.10
2023-04-27T11:28:39.223Z,33.20
2023-04-27T11:31:07.545Z,33.50
2023-04-27T11:33:35.943Z,33.60
2023-04-27T11:36:06.035Z,33.70
2023-04-27T11:38:34.489Z,33.60
2023-04-27T11:41:04.737Z,33.50
2023-04-27T11:43:33.632Z,33.40
2023-04-27T11:46:04.042Z,33.30
2023-04-27T11:48:32.519Z,33.20
2023-04-27T11:51:01.388Z,33.20
2023-04-27T11:53:34.351Z,33.10
2023-04-27T11:56:03.210Z,33.10
2023-04-27T11:58:31.248Z,33.30
2023-04-27T12:00:59.291Z,33.50
2023-04-27T12:03:27.817Z,33.70
2023-04-27T12:05:56.696Z,33.80
2023-04-27T12:08:26.346Z,34.10
2023-04-27T12:10:55.953Z,34.30
2023-04-27T12:13:25.216Z,34.20
2023-04-27T12:15:53.279Z,34.00
2023-04-27T12:18:21.441Z,33.90
2023-04-27T12:20:49.910Z,34.30
2023-04-27T12:23:18.006Z,33.60
2023-04-27T12:25:46.463Z,33.40
2023-04-27T12:28:19.066Z,33.40
2023-04-27T12:30:47.254Z,33.30
2023-04-27T12:33:15.403Z,33.40
2023-04-27T12:35:43.515Z,33.60
2023-04-27T12:38:11.541Z,33.70
2023-04-27T12:40:39.576Z,33.80
2023-04-27T12:43:08.107Z,33.60
2023-04-27T12:45:39.309Z,33.50
2023-04-27T12:48:08.082Z,33.40
2023-04-27T12:50:39.456Z,33.30
2023-04-27T12:53:07.508Z,33.20
2023-04-27T12:55:36.839Z,33.20
2023-04-27T12:58:05.815Z,33.10
2023-04-27T13:00:34.320Z,33.10
2023-04-27T13:03:04.710Z,33.30
2023-04-27T13:05:32.893Z,33.40
2023-04-27T13:08:00.918Z,33.70
2023-04-27T13:10:29.247Z,33.60
2023-04-27T13:12:57.881Z,33.50
2023-04-27T13:15:25.909Z,33.40
2023-04-27T13:17:54.553Z,33.30
2023-04-27T13:20:24.063Z,33.20
2023-04-27T13:22:52.110Z,33.10
2023-04-27T13:25:23.840Z,33.00
2023-04-27T13:27:51.997Z,32.90
2023-04-27T13:30:20.163Z,33.10
2023-04-27T13:32:48.242Z,33.30
2023-04-27T13:35:16.372Z,33.50
2023-04-27T13:37:45.809Z,33.70
2023-04-27T13:40:14.179Z,33.60
2023-04-27T13:42:42.241Z,33.50
2023-04-27T13:45:11.399Z,33.90
2023-04-27T13:47:40.826Z,33.20
2023-04-27T13:50:09.965Z,33.20
2023-04-27T13:52:38.445Z,33.10
2023-04-27T13:55:09.389Z,33.10
2023-04-27T13:57:37.430Z,33.10
2023-04-27T14:00:08.082Z,33.20
2023-04-27T14:02:36.420Z,33.40
2023-04-27T14:05:05.180Z,33.70
2023-04-27T14:07:35.539Z,33.70
2023-04-27T14:10:03.914Z,33.90
2023-04-27T14:12:33.470Z,34.20
2023-04-27T14:15:01.513Z,34.30
2023-04-27T14:17:29.670Z,34.10
2023-04-27T14:19:57.794Z,33.90
2023-04-27T14:22:26.079Z,33.80
2023-04-27T14:24:56.468Z,33.70
2023-04-27T14:27:29.197Z,33.70
2023-04-27T14:29:58.859Z,33.40
2023-04-27T14:32:29.132Z,33.40
2023-04-27T14:34:57.197Z,33.50
2023-04-27T14:37:25.627Z,33.80
2023-04-27T14:39:53.732Z,33.70
2023-04-27T14:42:21.819Z,34.10
2023-04-27T14:44:50.165Z,34.00
2023-04-27T14:47:20.615Z,33.80
2023-04-27T14:49:49.133Z,33.80
2023-04-27T14:52:17.359Z,33.60
2023-04-27T14:54:45.589Z,33.50
2023-04-27T14:57:13.718Z,33.40
2023-04-27T14:59:41.898Z,33.40
2023-04-27T15:02:10.158Z,33.40
2023-04-27T15:04:40.105Z,33.60
2023-04-27T15:07:09.768Z,33.60
2023-04-27T15:09:37.861Z,34.10
2023-04-27T15:12:07.942Z,33.90
2023-04-27T15:14:36.095Z,33.80
2023-04-27T15:17:04.190Z,33.70
2023-04-27T15:19:32.810Z,33.60
2023-04-27T15:22:03.395Z,33.50
2023-04-27T15:24:31.468Z,33.40
2023-04-27T15:26:59.596Z,33.40
2023-04-27T15:29:27.624Z,33.30
2023-04-27T15:31:55.730Z,33.40
2023-04-27T15:34:23.885Z,33.40
2023-04-27T15:36:52.920Z,33.70
2023-04-27T15:39:22.344Z,33.90
2023-04-27T15:41:50.492Z,33.80
2023-04-27T15:44:18.579Z,33.60
2023-04-27T15:46:46.694Z,33.60
2023-04-27T15:49:15.100Z,33.40
2023-04-27T15:51:43.429Z,33.40
2023-04-27T15:54:11.530Z,33.30
2023-04-27T15:56:40.956Z,33.20
2023-04-27T15:59:09.151Z,33.30
2023-04-27T16:01:37.694Z,33.40
2023-04-27T16:04:06.314Z,33.40
2023-04-27T16:06:34.994Z,33.70
2023-04-27T16:09:03.567Z,33.90
2023-04-27T16:11:31.852Z,34.50
2023-04-27T16:14:01.436Z,34.80
2023-04-27T16:16:29.700Z,34.50
2023-04-27T16:18:58.488Z,34.30
2023-04-27T16:21:26.882Z,34.20
2023-04-27T16:23:55.077Z,34.00
2023-04-27T16:26:24.100Z,33.90
2023-04-27T16:28:54.411Z,33.80
2023-04-27T16:31:24.485Z,33.70
2023-04-27T16:33:52.679Z,33.60
2023-04-27T16:36:20.742Z,33.70
2023-04-27T16:38:50.322Z,33.90
2023-04-27T16:41:18.398Z,34.00
2023-04-27T16:43:46.582Z,34.30
2023-04-27T16:46:14.809Z,34.10
2023-04-27T16:48:44.576Z,34.00
2023-04-27T16:51:12.865Z,33.90
2023-04-27T16:53:44.075Z,33.80
2023-04-27T16:56:14.197Z,33.70
2023-04-27T16:58:52.787Z,33.60
2023-04-27T17:01:20.918Z,33.50
2023-04-27T17:03:50.666Z,33.40
2023-04-27T17:06:18.822Z,33.70
2023-04-27T17:08:48.492Z,33.80
2023-04-27T17:11:16.784Z,34.20
2023-04-27T17:13:44.989Z,34.20
2023-04-27T17:16:13.650Z,34.00
2023-04-27T17:18:42.898Z,33.90
2023-04-27T17:21:12.392Z,33.80
2023-04-27T17:23:41.443Z,33.60
2023-04-27T17:26:10.054Z,33.60
2023-04-27T17:28:38.178Z,33.50
2023-04-27T17:31:06.708Z,33.40
2023-04-27T17:33:34.864Z,33.50
2023-04-27T17:36:02.953Z,33.70
2023-04-27T17:38:32.425Z,33.90
2023-04-27T17:41:00.498Z,34.30
2023-04-27T17:43:28.775Z,34.00
2023-04-27T17:45:56.828Z,33.90
2023-04-27T17:48:25.131Z,33.80
2023-04-27T17:50:53.581Z,33.70
2023-04-27T17:53:23.303Z,33.70
2023-04-27T17:55:52.885Z,33.60
2023-04-27T17:58:20.955Z,33.50
2023-04-27T18:00:49.096Z,33.50
2023-04-27T18:03:17.311Z,33.70
2023-04-27T18:05:45.576Z,33.80
2023-04-27T18:08:13.740Z,34.00
2023-04-27T18:10:41.794Z,34.60
2023-04-27T18:13:11.270Z,34.80
2023-04-27T18:15:39.523Z,35.10
2023-04-27T18:18:07.778Z,34.90
2023-04-27T18:20:36.587Z,34.70
2023-04-27T18:23:04.726Z,34.50
2023-04-27T18:25:32.798Z,34.30
2023-04-27T18:28:00.863Z,34.20
2023-04-27T18:30:30.282Z,34.00
2023-04-27T18:32:58.703Z,33.90
2023-04-27T18:35:26.851Z,33.80
2023-04-27T18:37:54.934Z,33.90
2023-04-27T18:40:23.297Z,34.00
2023-04-27T18:42:51.605Z,34.10
2023-04-27T18:45:19.741Z,34.60
2023-04-27T18:47:49.314Z,34.40
2023-04-27T18:50:17.642Z,34.20
2023-04-27T18:52:45.801Z,34.10
2023-04-27T18:55:16.568Z,34.10
2023-04-27T18:57:44.858Z,33.90
2023-04-27T19:00:14.121Z,33.80
2023-04-27T19:02:42.329Z,33.70
2023-04-27T19:05:13.777Z,33.60
2023-04-27T19:07:42.344Z,33.80
2023-04-27T19:10:11.493Z,34.00
2023-04-27T19:12:39.851Z,34.30
2023-04-27T19:15:08.549Z,34.50
2023-04-27T19:17:37.041Z,34.20
2023-04-27T19:20:07.172Z,34.10
2023-04-27T19:22:37.050Z,34.00
2023-04-27T19:25:05.155Z,33.80
2023-04-27T19:27:33.394Z,33.80
2023-04-27T19:30:02.591Z,33.60
2023-04-27T19:32:32.835Z,33.50
2023-04-27T19:35:01.703Z,33.70
2023-04-27T19:37:29.834Z,33.90
2023-04-27T19:39:59.312Z,34.20
2023-04-27T19:42:27.403Z,34.50
2023-04-27T19:44:55.841Z,34.20
2023-04-27T19:47:24.576Z,34.10
2023-04-27T19:49:53.114Z,34.00
2023-04-27T19:52:22.147Z,33.90
2023-04-27T19:54:52.654Z,33.80
2023-04-27T19:57:22.290Z,33.70
2023-04-27T19:59:50.364Z,33.60
2023-04-27T20:02:18.476Z,33.50
2023-04-27T20:04:47.387Z,33.70
2023-04-27T20:07:16.908Z,34.10
2023-04-27T20:09:46.075Z,34.40
2023-04-27T20:12:34.890Z,34.60
2023-04-27T20:15:05.123Z,34.80
2023-04-27T20:17:33.199Z,35.10
2023-04-27T20:20:01.354Z,35.00
2023-04-27T20:22:29.418Z,34.80
2023-04-27T20:24:59.202Z,34.60
2023-04-27T20:27:27.329Z,34.50
2023-04-27T20:29:55.443Z,34.30
2023-04-27T20:32:25.286Z,34.20
2023-04-27T20:34:54.354Z,34.00
2023-04-27T20:37:23.209Z,33.90
2023-04-27T20:39:51.684Z,33.90
2023-04-27T20:42:20.808Z,34.40
2023-04-27T20:44:48.845Z,34.70
2023-04-27T20:47:16.898Z,34.80
2023-04-27T20:49:46.296Z,34.40
2023-04-27T20:52:14.407Z,34.40
2023-04-27T20:54:42.423Z,34.30
2023-04-27T20:57:13.794Z,34.00
2023-04-27T20:59:41.893Z,34.00
2023-04-27T21:02:09.946Z,33.90
2023-04-27T21:04:39.530Z,33.80
2023-04-27T21:07:09.023Z,33.70
2023-04-27T21:09:38.621Z,33.80
2023-04-27T21:12:06.798Z,34.20
2023-04-27T21:14:34.804Z,34.50
2023-04-27T21:17:08.929Z,34.50
2023-04-27T21:19:36.957Z,34.30
2023-04-27T21:22:04.971Z,34.20
2023-04-27T21:24:34.501Z,34.00
2023-04-27T21:27:02.609Z,33.90
2023-04-27T21:29:30.659Z,33.80
2023-04-27T21:31:58.695Z,33.70
2023-04-27T21:34:26.714Z,33.60
2023-04-27T21:36:54.775Z,33.60
2023-04-27T21:39:22.921Z,33.90
2023-04-27T21:41:52.804Z,34.20
2023-04-27T21:44:20.840Z,34.50
2023-04-27T21:46:48.966Z,34.30
2023-04-27T21:49:17.148Z,34.20
2023-04-27T21:51:45.226Z,34.00
2023-04-27T21:54:13.571Z,33.80
2023-04-27T21:56:41.910Z,33.80
2023-04-27T21:59:11.319Z,33.70
2023-04-27T22:01:39.345Z,33.60
2023-04-27T22:04:07.546Z,33.50
2023-04-27T22:06:35.873Z,33.60
2023-04-27T22:09:06.509Z,34.00
2023-04-27T22:11:35.906Z,34.30
2023-04-27T22:14:03.912Z,34.60
2023-04-27T22:16:33.382Z,34.80
2023-04-27T22:19:01.422Z,35.00
2023-04-27T22:21:29.451Z,35.80
2023-04-27T22:23:57.489Z,34.90
2023-04-27T22:26:25.781Z,34.70
2023-04-27T22:28:53.762Z,34.50
2023-04-27T22:31:21.898Z,34.40
2023-04-27T22:33:51.358Z,34.20
2023-04-27T22:36:19.394Z,34.10
2023-04-27T22:38:47.400Z,34.00
2023-04-27T22:41:15.423Z,33.70
2023-04-27T22:43:43.433Z,34.10
2023-04-27T22:46:11.447Z,34.30
2023-04-27T22:48:39.439Z,34.70
2023-04-27T22:51:10.506Z,34.50
2023-04-27T22:53:38.596Z,34.30
2023-04-27T22:56:07.431Z,34.20
2023-04-27T22:58:36.112Z,34.10
2023-04-27T23:01:04.296Z,33.90
2023-04-27T23:03:32.543Z,33.80
2023-04-27T23:06:01.295Z,34.30
2023-04-27T23:08:30.690Z,33.60
2023-04-27T23:10:58.688Z,33.50
2023-04-27T23:13:27.734Z,33.90
2023-04-27T23:15:55.916Z,34.30
2023-04-27T23:18:23.953Z,34.60
2023-04-27T23:20:54.055Z,34.10
2023-04-27T23:23:22.068Z,34.10
2023-04-27T23:25:51.447Z,34.00
2023-04-27T23:28:19.634Z,33.90
2023-04-27T23:30:53.867Z,33.80
2023-04-27T23:33:21.963Z,33.60
2023-04-27T23:35:50.002Z,33.50
2023-04-27T23:38:18.007Z,33.50
2023-04-27T23:40:45.981Z,33.80
2023-04-27T23:43:15.358Z,34.20
2023-04-27T23:45:43.376Z,34.50
2023-04-27T23:48:11.466Z,34.20
2023-04-27T23:50:39.574Z,34.10
2023-04-27T23:53:07.938Z,33.90
2023-04-27T23:55:36.296Z,33.80
2023-04-27T23:58:04.330Z,33.60
